sensor_id;sensor_type;location;lat;lon;timestamp;temperature;humidity
21184;DHT22;18176;49.502;11.754;2024-01-06T00:01:44;2.10;99.90
21184;DHT22;18176;49.502;11.754;2024-01-06T00:06:06;2.10;99.90
21184;DHT22;18176;49.502;11.754;2024-01-06T00:10:27;2.10;99.90
21184;DHT22;18176;49.502;11.754;2024-01-06T00:14:47;2.10;99.90
21184;DHT22;18176;49.502;11.754;2024-01-06T00:19:10;2.00;99.90
21184;DHT22;18176;49.502;11.754;2024-01-06T00:23:31;2.00;99.90
21184;DHT22;18176;49.502;11.754;2024-01-06T00:27:52;1.90;99.90
21184;DHT22;18176;49.502;11.754;2024-01-06T00:32:12;1.90;99.90
21184;DHT22;18176;49.502;11.754;2024-01-06T00:36:36;1.90;99.90
21184;DHT22;18176;49.502;11.754;2024-01-06T00:40:56;1.80;99.90
21184;DHT22;18176;49.502;11.754;2024-01-06T00:45:17;1.80;99.90
21184;DHT22;18176;49.502;11.754;2024-01-06T00:49:38;1.80;99.90
21184;DHT22;18176;49.502;11.754;2024-01-06T00:54:01;1.80;99.90
21184;DHT22;18176;49.502;11.754;2024-01-06T00:58:22;1.80;99.90
21184;DHT22;18176;49.502;11.754;2024-01-06T01:02:43;1.80;99.90
21184;DHT22;18176;49.502;11.754;2024-01-06T01:07:03;1.80;99.90
21184;DHT22;18176;49.502;11.754;2024-01-06T01:11:27;1.80;99.90
21184;DHT22;18176;49.502;11.754;2024-01-06T01:15:47;1.80;99.90
21184;DHT22;18176;49.502;11.754;2024-01-06T01:20:09;1.80;99.90
21184;DHT22;18176;49.502;11.754;2024-01-06T01:24:30;1.90;99.90
21184;DHT22;18176;49.502;11.754;2024-01-06T01:28:54;1.90;99.90
21184;DHT22;18176;49.502;11.754;2024-01-06T01:33:14;1.90;99.90
21184;DHT22;18176;49.502;11.754;2024-01-06T01:37:36;2.00;99.90
21184;DHT22;18176;49.502;11.754;2024-01-06T01:41:56;2.00;99.90
21184;DHT22;18176;49.502;11.754;2024-01-06T01:46:19;2.00;99.90
21184;DHT22;18176;49.502;11.754;2024-01-06T01:50:40;2.00;99.90
21184;DHT22;18176;49.502;11.754;2024-01-06T01:55:01;2.00;99.90
21184;DHT22;18176;49.502;11.754;2024-01-06T01:59:22;2.10;99.90
21184;DHT22;18176;49.502;11.754;2024-01-06T02:03:45;2.00;99.90
21184;DHT22;18176;49.502;11.754;2024-01-06T02:08:06;2.10;99.90
21184;DHT22;18176;49.502;11.754;2024-01-06T02:12:27;2.10;99.90
21184;DHT22;18176;49.502;11.754;2024-01-06T02:16:47;2.10;99.90
21184;DHT22;18176;49.502;11.754;2024-01-06T02:21:10;2.10;99.90
21184;DHT22;18176;49.502;11.754;2024-01-06T02:25:34;2.10;99.90
21184;DHT22;18176;49.502;11.754;2024-01-06T02:29:55;2.10;99.90
21184;DHT22;18176;49.502;11.754;2024-01-06T02:34:15;2.10;99.90
21184;DHT22;18176;49.502;11.754;2024-01-06T02:38:36;2.10;99.90
21184;DHT22;18176;49.502;11.754;2024-01-06T02:42:59;2.10;99.90
21184;DHT22;18176;49.502;11.754;2024-01-06T02:47:20;2.10;99.90
21184;DHT22;18176;49.502;11.754;2024-01-06T02:51:40;2.00;99.90
21184;DHT22;18176;49.502;11.754;2024-01-06T02:56:01;2.10;99.90
21184;DHT22;18176;49.502;11.754;2024-01-06T03:00:25;2.10;99.90
21184;DHT22;18176;49.502;11.754;2024-01-06T03:04:45;2.10;99.90
21184;DHT22;18176;49.502;11.754;2024-01-06T03:09:06;2.10;99.90
21184;DHT22;18176;49.502;11.754;2024-01-06T03:13:26;2.10;99.90
21184;DHT22;18176;49.502;11.754;2024-01-06T03:17:49;2.00;99.90
21184;DHT22;18176;49.502;11.754;2024-01-06T03:22:10;2.00;99.90
21184;DHT22;18176;49.502;11.754;2024-01-06T03:26:31;2.00;99.90
21184;DHT22;18176;49.502;11.754;2024-01-06T03:30:51;2.10;99.90
21184;DHT22;18176;49.502;11.754;2024-01-06T03:35:15;2.00;99.90
21184;DHT22;18176;49.502;11.754;2024-01-06T03:39:35;2.00;99.90
21184;DHT22;18176;49.502;11.754;2024-01-06T03:43:56;2.00;99.90
21184;DHT22;18176;49.502;11.754;2024-01-06T03:48:17;2.00;99.90
21184;DHT22;18176;49.502;11.754;2024-01-06T03:52:40;2.00;99.90
21184;DHT22;18176;49.502;11.754;2024-01-06T03:57:01;2.00;99.90
21184;DHT22;18176;49.502;11.754;2024-01-06T04:01:21;2.00;99.90
21184;DHT22;18176;49.502;11.754;2024-01-06T04:05:42;2.00;99.90
21184;DHT22;18176;49.502;11.754;2024-01-06T04:10:05;2.00;99.90
21184;DHT22;18176;49.502;11.754;2024-01-06T04:14:26;2.00;99.90
21184;DHT22;18176;49.502;11.754;2024-01-06T04:18:47;2.00;99.90
21184;DHT22;18176;49.502;11.754;2024-01-06T04:23:08;2.00;99.90
21184;DHT22;18176;49.502;11.754;2024-01-06T04:27:31;2.00;99.90
21184;DHT22;18176;49.502;11.754;2024-01-06T04:31:52;2.00;99.90
21184;DHT22;18176;49.502;11.754;2024-01-06T04:36:12;2.00;99.90
21184;DHT22;18176;49.502;11.754;2024-01-06T04:40:33;2.00;99.90
21184;DHT22;18176;49.502;11.754;2024-01-06T04:44:56;2.00;99.90
21184;DHT22;18176;49.502;11.754;2024-01-06T04:49:17;2.00;99.90
21184;DHT22;18176;49.502;11.754;2024-01-06T04:53:38;2.00;99.90
21184;DHT22;18176;49.502;11.754;2024-01-06T04:57:58;2.00;99.90
21184;DHT22;18176;49.502;11.754;2024-01-06T05:02:22;2.00;99.90
21184;DHT22;18176;49.502;11.754;2024-01-06T05:06:43;2.00;99.90
21184;DHT22;18176;49.502;11.754;2024-01-06T05:11:03;2.10;99.90
21184;DHT22;18176;49.502;11.754;2024-01-06T05:15:25;2.10;99.90
21184;DHT22;18176;49.502;11.754;2024-01-06T05:19:48;2.10;99.90
21184;DHT22;18176;49.502;11.754;2024-01-06T05:24:09;2.10;99.90
21184;DHT22;18176;49.502;11.754;2024-01-06T05:28:30;2.20;99.90
21184;DHT22;18176;49.502;11.754;2024-01-06T05:32:50;2.20;99.90
21184;DHT22;18176;49.502;11.754;2024-01-06T05:37:14;2.10;99.90
21184;DHT22;18176;49.502;11.754;2024-01-06T05:41:37;2.20;99.90
21184;DHT22;18176;49.502;11.754;2024-01-06T05:45:59;2.10;99.90
21184;DHT22;18176;49.502;11.754;2024-01-06T05:50:19;2.10;99.90
21184;DHT22;18176;49.502;11.754;2024-01-06T05:54:43;2.00;99.90
21184;DHT22;18176;49.502;11.754;2024-01-06T05:59:03;1.90;99.90
21184;DHT22;18176;49.502;11.754;2024-01-06T06:03:24;1.80;99.90
21184;DHT22;18176;49.502;11.754;2024-01-06T06:07:44;1.70;99.90
21184;DHT22;18176;49.502;11.754;2024-01-06T06:12:08;1.70;99.90
21184;DHT22;18176;49.502;11.754;2024-01-06T06:16:29;1.60;99.90
21184;DHT22;18176;49.502;11.754;2024-01-06T06:20:49;1.50;99.90
21184;DHT22;18176;49.502;11.754;2024-01-06T06:25:10;1.50;99.90
21184;DHT22;18176;49.502;11.754;2024-01-06T06:29:33;1.60;99.90
21184;DHT22;18176;49.502;11.754;2024-01-06T06:33:55;1.50;99.90
21184;DHT22;18176;49.502;11.754;2024-01-06T06:38:15;1.50;99.90
21184;DHT22;18176;49.502;11.754;2024-01-06T06:42:36;1.40;99.90
21184;DHT22;18176;49.502;11.754;2024-01-06T06:46:59;1.30;99.90
21184;DHT22;18176;49.502;11.754;2024-01-06T06:51:20;1.30;99.90
21184;DHT22;18176;49.502;11.754;2024-01-06T06:55:45;1.30;99.90
21184;DHT22;18176;49.502;11.754;2024-01-06T07:00:06;1.40;99.90
21184;DHT22;18176;49.502;11.754;2024-01-06T07:04:31;1.40;99.90
21184;DHT22;18176;49.502;11.754;2024-01-06T07:08:51;1.50;99.90
21184;DHT22;18176;49.502;11.754;2024-01-06T07:13:12;1.50;99.90
21184;DHT22;18176;49.502;11.754;2024-01-06T07:17:32;1.60;99.90
21184;DHT22;18176;49.502;11.754;2024-01-06T07:21:56;1.50;99.90
21184;DHT22;18176;49.502;11.754;2024-01-06T07:26:17;1.60;99.90
21184;DHT22;18176;49.502;11.754;2024-01-06T07:30:38;1.70;99.90
21184;DHT22;18176;49.502;11.754;2024-01-06T07:35:00;1.80;99.90
21184;DHT22;18176;49.502;11.754;2024-01-06T07:39:27;1.80;99.90
21184;DHT22;18176;49.502;11.754;2024-01-06T07:43:47;1.90;99.90
21184;DHT22;18176;49.502;11.754;2024-01-06T07:48:08;2.00;99.90
21184;DHT22;18176;49.502;11.754;2024-01-06T07:52:29;2.10;99.90
21184;DHT22;18176;49.502;11.754;2024-01-06T07:56:53;2.10;99.90
21184;DHT22;18176;49.502;11.754;2024-01-06T08:01:13;2.00;99.90
21184;DHT22;18176;49.502;11.754;2024-01-06T08:05:34;2.00;99.90
21184;DHT22;18176;49.502;11.754;2024-01-06T08:09:55;2.10;99.90
21184;DHT22;18176;49.502;11.754;2024-01-06T08:14:18;2.20;99.90
21184;DHT22;18176;49.502;11.754;2024-01-06T08:18:39;2.30;99.90
21184;DHT22;18176;49.502;11.754;2024-01-06T08:22:59;2.40;99.90
21184;DHT22;18176;49.502;11.754;2024-01-06T08:27:20;2.40;99.90
21184;DHT22;18176;49.502;11.754;2024-01-06T08:31:44;2.50;99.90
21184;DHT22;18176;49.502;11.754;2024-01-06T08:36:05;2.60;99.90
21184;DHT22;18176;49.502;11.754;2024-01-06T08:40:26;2.80;99.90
21184;DHT22;18176;49.502;11.754;2024-01-06T08:44:50;2.80;99.90
21184;DHT22;18176;49.502;11.754;2024-01-06T08:49:17;2.90;99.90
21184;DHT22;18176;49.502;11.754;2024-01-06T08:53:38;3.00;99.90
21184;DHT22;18176;49.502;11.754;2024-01-06T08:57:58;3.10;99.90
21184;DHT22;18176;49.502;11.754;2024-01-06T09:02:19;3.30;99.90
21184;DHT22;18176;49.502;11.754;2024-01-06T09:06:43;3.40;99.90
21184;DHT22;18176;49.502;11.754;2024-01-06T09:11:04;3.60;99.90
21184;DHT22;18176;49.502;11.754;2024-01-06T09:15:27;3.70;99.90
21184;DHT22;18176;49.502;11.754;2024-01-06T09:19:49;3.80;99.90
21184;DHT22;18176;49.502;11.754;2024-01-06T09:24:14;3.90;99.90
21184;DHT22;18176;49.502;11.754;2024-01-06T09:28:34;4.00;99.90
21184;DHT22;18176;49.502;11.754;2024-01-06T09:32:55;4.10;99.90
21184;DHT22;18176;49.502;11.754;2024-01-06T09:37:16;4.20;99.90
21184;DHT22;18176;49.502;11.754;2024-01-06T09:41:39;4.30;99.90
21184;DHT22;18176;49.502;11.754;2024-01-06T09:46:06;4.60;99.90
21184;DHT22;18176;49.502;11.754;2024-01-06T09:50:35;4.80;99.90
21184;DHT22;18176;49.502;11.754;2024-01-06T09:54:57;4.90;99.90
21184;DHT22;18176;49.502;11.754;2024-01-06T09:59:22;5.10;99.90
21184;DHT22;18176;49.502;11.754;2024-01-06T10:03:44;5.00;99.90
21184;DHT22;18176;49.502;11.754;2024-01-06T10:08:06;5.10;99.90
21184;DHT22;18176;49.502;11.754;2024-01-06T10:12:26;5.10;99.90
21184;DHT22;18176;49.502;11.754;2024-01-06T10:16:52;5.20;99.90
21184;DHT22;18176;49.502;11.754;2024-01-06T10:21:13;5.40;99.90
21184;DHT22;18176;49.502;11.754;2024-01-06T10:25:35;5.30;99.90
21184;DHT22;18176;49.502;11.754;2024-01-06T10:30:00;5.20;99.90
21184;DHT22;18176;49.502;11.754;2024-01-06T10:34:23;5.20;99.90
21184;DHT22;18176;49.502;11.754;2024-01-06T10:38:45;5.30;99.90
21184;DHT22;18176;49.502;11.754;2024-01-06T10:43:05;5.30;99.90
21184;DHT22;18176;49.502;11.754;2024-01-06T10:47:29;5.50;99.90
21184;DHT22;18176;49.502;11.754;2024-01-06T10:51:53;5.70;99.90
21184;DHT22;18176;49.502;11.754;2024-01-06T10:56:16;5.60;99.90
21184;DHT22;18176;49.502;11.754;2024-01-06T11:00:37;5.70;99.90
21184;DHT22;18176;49.502;11.754;2024-01-06T11:04:57;5.80;99.90
21184;DHT22;18176;49.502;11.754;2024-01-06T11:09:24;5.80;99.90
21184;DHT22;18176;49.502;11.754;2024-01-06T11:13:51;5.80;99.90
21184;DHT22;18176;49.502;11.754;2024-01-06T11:18:30;5.80;99.90
21184;DHT22;18176;49.502;11.754;2024-01-06T11:22:53;5.80;99.90
21184;DHT22;18176;49.502;11.754;2024-01-06T11:27:20;5.70;99.90
21184;DHT22;18176;49.502;11.754;2024-01-06T11:31:44;5.90;99.90
21184;DHT22;18176;49.502;11.754;2024-01-06T11:36:37;5.70;99.90
21184;DHT22;18176;49.502;11.754;2024-01-06T11:40:58;5.40;99.90
21184;DHT22;18176;49.502;11.754;2024-01-06T11:45:23;5.40;99.90
21184;DHT22;18176;49.502;11.754;2024-01-06T11:49:45;5.30;99.90
21184;DHT22;18176;49.502;11.754;2024-01-06T11:54:06;5.30;99.90
21184;DHT22;18176;49.502;11.754;2024-01-06T11:58:30;5.30;99.90
21184;DHT22;18176;49.502;11.754;2024-01-06T12:02:59;5.30;99.90
21184;DHT22;18176;49.502;11.754;2024-01-06T12:07:21;5.40;99.90
21184;DHT22;18176;49.502;11.754;2024-01-06T12:11:42;5.40;99.90
21184;DHT22;18176;49.502;11.754;2024-01-06T12:16:05;5.50;99.90
21184;DHT22;18176;49.502;11.754;2024-01-06T12:20:29;5.50;99.90
21184;DHT22;18176;49.502;11.754;2024-01-06T12:24:51;5.40;99.90
21184;DHT22;18176;49.502;11.754;2024-01-06T12:29:12;5.50;99.90
21184;DHT22;18176;49.502;11.754;2024-01-06T12:33:33;5.60;99.90
21184;DHT22;18176;49.502;11.754;2024-01-06T12:37:58;5.70;99.90
21184;DHT22;18176;49.502;11.754;2024-01-06T12:42:19;5.80;99.90
21184;DHT22;18176;49.502;11.754;2024-01-06T12:46:41;5.80;99.90
21184;DHT22;18176;49.502;11.754;2024-01-06T12:51:02;5.70;99.90
21184;DHT22;18176;49.502;11.754;2024-01-06T12:55:26;5.80;99.90
21184;DHT22;18176;49.502;11.754;2024-01-06T12:59:46;5.90;99.90
21184;DHT22;18176;49.502;11.754;2024-01-06T13:04:07;6.10;99.90
21184;DHT22;18176;49.502;11.754;2024-01-06T13:08:28;6.10;99.90
21184;DHT22;18176;49.502;11.754;2024-01-06T13:12:51;6.10;99.90
21184;DHT22;18176;49.502;11.754;2024-01-06T13:17:12;6.20;99.90
21184;DHT22;18176;49.502;11.754;2024-01-06T13:21:33;6.30;99.90
21184;DHT22;18176;49.502;11.754;2024-01-06T13:25:57;6.30;99.90
21184;DHT22;18176;49.502;11.754;2024-01-06T13:30:20;6.30;99.90
21184;DHT22;18176;49.502;11.754;2024-01-06T13:34:43;6.40;99.90
21184;DHT22;18176;49.502;11.754;2024-01-06T13:39:04;6.20;99.90
21184;DHT22;18176;49.502;11.754;2024-01-06T13:43:25;6.10;99.90
21184;DHT22;18176;49.502;11.754;2024-01-06T13:47:48;6.00;99.90
21184;DHT22;18176;49.502;11.754;2024-01-06T13:52:09;5.80;99.90
21184;DHT22;18176;49.502;11.754;2024-01-06T13:56:31;5.70;99.90
21184;DHT22;18176;49.502;11.754;2024-01-06T14:00:53;5.70;99.90
21184;DHT22;18176;49.502;11.754;2024-01-06T14:05:17;5.70;99.90
21184;DHT22;18176;49.502;11.754;2024-01-06T14:09:39;5.70;99.90
21184;DHT22;18176;49.502;11.754;2024-01-06T14:13:59;5.60;99.90
21184;DHT22;18176;49.502;11.754;2024-01-06T14:18:22;5.60;99.90
21184;DHT22;18176;49.502;11.754;2024-01-06T14:22:48;5.40;99.90
21184;DHT22;18176;49.502;11.754;2024-01-06T14:27:09;5.30;99.90
21184;DHT22;18176;49.502;11.754;2024-01-06T14:31:30;5.20;99.90
21184;DHT22;18176;49.502;11.754;2024-01-06T14:35:51;5.10;99.90
21184;DHT22;18176;49.502;11.754;2024-01-06T14:40:14;5.00;99.90
21184;DHT22;18176;49.502;11.754;2024-01-06T14:44:35;4.90;99.90
21184;DHT22;18176;49.502;11.754;2024-01-06T14:48:56;4.80;99.90
21184;DHT22;18176;49.502;11.754;2024-01-06T14:53:17;4.70;99.90
21184;DHT22;18176;49.502;11.754;2024-01-06T14:57:40;4.50;99.90
21184;DHT22;18176;49.502;11.754;2024-01-06T15:02:01;4.40;99.90
21184;DHT22;18176;49.502;11.754;2024-01-06T15:06:22;4.20;99.90
21184;DHT22;18176;49.502;11.754;2024-01-06T15:10:42;4.10;99.90
21184;DHT22;18176;49.502;11.754;2024-01-06T15:15:07;4.00;99.90
21184;DHT22;18176;49.502;11.754;2024-01-06T15:19:28;3.90;99.90
21184;DHT22;18176;49.502;11.754;2024-01-06T15:23:51;3.70;99.90
21184;DHT22;18176;49.502;11.754;2024-01-06T15:28:12;3.60;99.90
21184;DHT22;18176;49.502;11.754;2024-01-06T15:32:37;3.60;99.90
21184;DHT22;18176;49.502;11.754;2024-01-06T15:36:58;3.50;99.90
21184;DHT22;18176;49.502;11.754;2024-01-06T15:41:19;3.40;99.90
21184;DHT22;18176;49.502;11.754;2024-01-06T15:45:39;3.30;99.90
21184;DHT22;18176;49.502;11.754;2024-01-06T15:50:03;3.30;99.90
21184;DHT22;18176;49.502;11.754;2024-01-06T15:54:26;3.20;99.90
21184;DHT22;18176;49.502;11.754;2024-01-06T15:58:48;3.20;99.90
21184;DHT22;18176;49.502;11.754;2024-01-06T16:03:11;3.10;99.90
21184;DHT22;18176;49.502;11.754;2024-01-06T16:07:35;3.10;99.90
21184;DHT22;18176;49.502;11.754;2024-01-06T16:11:56;3.00;99.90
21184;DHT22;18176;49.502;11.754;2024-01-06T16:16:16;3.00;99.90
21184;DHT22;18176;49.502;11.754;2024-01-06T16:20:39;3.00;99.90
21184;DHT22;18176;49.502;11.754;2024-01-06T16:25:02;2.90;99.90
21184;DHT22;18176;49.502;11.754;2024-01-06T16:29:24;3.00;99.90
21184;DHT22;18176;49.502;11.754;2024-01-06T16:33:44;3.00;99.90
21184;DHT22;18176;49.502;11.754;2024-01-06T16:38:05;3.10;99.90
21184;DHT22;18176;49.502;11.754;2024-01-06T16:42:28;3.10;99.90
21184;DHT22;18176;49.502;11.754;2024-01-06T16:46:49;3.10;99.90
21184;DHT22;18176;49.502;11.754;2024-01-06T16:51:14;2.90;99.90
21184;DHT22;18176;49.502;11.754;2024-01-06T16:55:35;2.90;99.90
21184;DHT22;18176;49.502;11.754;2024-01-06T16:59:59;2.80;99.90
21184;DHT22;18176;49.502;11.754;2024-01-06T17:04:19;2.80;99.90
21184;DHT22;18176;49.502;11.754;2024-01-06T17:08:40;2.70;99.90
21184;DHT22;18176;49.502;11.754;2024-01-06T17:13:01;2.70;99.90
21184;DHT22;18176;49.502;11.754;2024-01-06T17:17:25;2.60;99.90
21184;DHT22;18176;49.502;11.754;2024-01-06T17:21:46;2.60;99.90
21184;DHT22;18176;49.502;11.754;2024-01-06T17:26:07;2.50;99.90
21184;DHT22;18176;49.502;11.754;2024-01-06T17:30:28;2.50;99.90
21184;DHT22;18176;49.502;11.754;2024-01-06T17:34:51;2.50;99.90
21184;DHT22;18176;49.502;11.754;2024-01-06T17:39:12;2.40;99.90
21184;DHT22;18176;49.502;11.754;2024-01-06T17:43:33;2.40;99.90
21184;DHT22;18176;49.502;11.754;2024-01-06T17:47:54;2.40;99.90
21184;DHT22;18176;49.502;11.754;2024-01-06T17:52:18;2.50;99.90
21184;DHT22;18176;49.502;11.754;2024-01-06T17:56:40;2.40;99.90
21184;DHT22;18176;49.502;11.754;2024-01-06T18:01:02;2.40;99.90
21184;DHT22;18176;49.502;11.754;2024-01-06T18:05:24;2.40;99.90
21184;DHT22;18176;49.502;11.754;2024-01-06T18:09:48;2.40;99.90
21184;DHT22;18176;49.502;11.754;2024-01-06T18:14:08;2.40;99.90
21184;DHT22;18176;49.502;11.754;2024-01-06T18:18:29;2.40;99.90
21184;DHT22;18176;49.502;11.754;2024-01-06T18:22:50;2.40;99.90
21184;DHT22;18176;49.502;11.754;2024-01-06T18:27:13;2.50;99.90
21184;DHT22;18176;49.502;11.754;2024-01-06T18:31:34;2.40;99.90
21184;DHT22;18176;49.502;11.754;2024-01-06T18:35:56;2.50;99.90
21184;DHT22;18176;49.502;11.754;2024-01-06T18:40:16;2.50;99.90
21184;DHT22;18176;49.502;11.754;2024-01-06T18:44:40;2.60;99.90
21184;DHT22;18176;49.502;11.754;2024-01-06T18:49:05;2.60;99.90
21184;DHT22;18176;49.502;11.754;2024-01-06T18:53:26;2.60;99.90
21184;DHT22;18176;49.502;11.754;2024-01-06T18:57:47;2.60;99.90
21184;DHT22;18176;49.502;11.754;2024-01-06T19:02:10;2.70;99.90
21184;DHT22;18176;49.502;11.754;2024-01-06T19:06:31;2.70;99.90
21184;DHT22;18176;49.502;11.754;2024-01-06T19:10:51;2.70;99.90
21184;DHT22;18176;49.502;11.754;2024-01-06T19:15:12;2.60;99.90
21184;DHT22;18176;49.502;11.754;2024-01-06T19:19:35;2.60;99.90
21184;DHT22;18176;49.502;11.754;2024-01-06T19:23:58;2.60;99.90
21184;DHT22;18176;49.502;11.754;2024-01-06T19:28:19;2.60;99.90
21184;DHT22;18176;49.502;11.754;2024-01-06T19:32:40;2.60;99.90
21184;DHT22;18176;49.502;11.754;2024-01-06T19:37:03;2.60;99.90
21184;DHT22;18176;49.502;11.754;2024-01-06T19:41:24;2.60;99.90
21184;DHT22;18176;49.502;11.754;2024-01-06T19:45:45;2.50;99.90
21184;DHT22;18176;49.502;11.754;2024-01-06T19:50:07;2.50;99.90
21184;DHT22;18176;49.502;11.754;2024-01-06T19:54:32;2.50;99.90
21184;DHT22;18176;49.502;11.754;2024-01-06T19:58:54;2.40;99.90
21184;DHT22;18176;49.502;11.754;2024-01-06T20:03:15;2.40;99.90
21184;DHT22;18176;49.502;11.754;2024-01-06T20:07:35;2.40;99.90
21184;DHT22;18176;49.502;11.754;2024-01-06T20:11:58;2.30;99.90
21184;DHT22;18176;49.502;11.754;2024-01-06T20:16:19;2.30;99.90
21184;DHT22;18176;49.502;11.754;2024-01-06T20:20:40;2.30;99.90
21184;DHT22;18176;49.502;11.754;2024-01-06T20:25:00;2.30;99.90
21184;DHT22;18176;49.502;11.754;2024-01-06T20:29:24;2.30;99.90
21184;DHT22;18176;49.502;11.754;2024-01-06T20:33:45;2.40;99.90
21184;DHT22;18176;49.502;11.754;2024-01-06T20:38:05;2.40;99.90
21184;DHT22;18176;49.502;11.754;2024-01-06T20:42:26;2.40;99.90
21184;DHT22;18176;49.502;11.754;2024-01-06T20:46:50;2.50;99.90
21184;DHT22;18176;49.502;11.754;2024-01-06T20:51:11;2.50;99.90
21184;DHT22;18176;49.502;11.754;2024-01-06T20:55:32;2.50;99.90
21184;DHT22;18176;49.502;11.754;2024-01-06T20:59:52;2.50;99.90
21184;DHT22;18176;49.502;11.754;2024-01-06T21:04:16;2.50;99.90
21184;DHT22;18176;49.502;11.754;2024-01-06T21:08:36;2.50;99.90
21184;DHT22;18176;49.502;11.754;2024-01-06T21:12:57;2.50;99.90
21184;DHT22;18176;49.502;11.754;2024-01-06T21:17:18;2.40;99.90
21184;DHT22;18176;49.502;11.754;2024-01-06T21:21:42;2.40;99.90
21184;DHT22;18176;49.502;11.754;2024-01-06T21:26:03;2.40;99.90
21184;DHT22;18176;49.502;11.754;2024-01-06T21:30:23;2.40;99.90
21184;DHT22;18176;49.502;11.754;2024-01-06T21:34:44;2.40;99.90
21184;DHT22;18176;49.502;11.754;2024-01-06T21:39:07;2.40;99.90
21184;DHT22;18176;49.502;11.754;2024-01-06T21:43:28;2.40;99.90
21184;DHT22;18176;49.502;11.754;2024-01-06T21:47:49;2.50;99.90
21184;DHT22;18176;49.502;11.754;2024-01-06T21:52:13;2.60;99.90
21184;DHT22;18176;49.502;11.754;2024-01-06T21:56:37;2.60;99.90
21184;DHT22;18176;49.502;11.754;2024-01-06T22:00:57;2.70;99.90
21184;DHT22;18176;49.502;11.754;2024-01-06T22:05:18;2.80;99.90
21184;DHT22;18176;49.502;11.754;2024-01-06T22:09:39;2.90;99.90
21184;DHT22;18176;49.502;11.754;2024-01-06T22:14:02;2.90;99.90
21184;DHT22;18176;49.502;11.754;2024-01-06T22:18:22;2.80;99.90
21184;DHT22;18176;49.502;11.754;2024-01-06T22:22:43;2.80;99.90
21184;DHT22;18176;49.502;11.754;2024-01-06T22:27:04;2.80;99.90
21184;DHT22;18176;49.502;11.754;2024-01-06T22:31:27;2.80;99.90
21184;DHT22;18176;49.502;11.754;2024-01-06T22:35:48;2.80;99.90
21184;DHT22;18176;49.502;11.754;2024-01-06T22:40:09;2.80;99.90
21184;DHT22;18176;49.502;11.754;2024-01-06T22:44:31;2.80;99.90
21184;DHT22;18176;49.502;11.754;2024-01-06T22:48:54;2.80;99.90
21184;DHT22;18176;49.502;11.754;2024-01-06T22:53:14;2.90;99.90
21184;DHT22;18176;49.502;11.754;2024-01-06T22:57:35;2.80;99.90
21184;DHT22;18176;49.502;11.754;2024-01-06T23:01:57;2.60;99.90
21184;DHT22;18176;49.502;11.754;2024-01-06T23:06:20;2.60;99.90
21184;DHT22;18176;49.502;11.754;2024-01-06T23:10:41;2.50;99.90
21184;DHT22;18176;49.502;11.754;2024-01-06T23:15:02;2.40;99.90
21184;DHT22;18176;49.502;11.754;2024-01-06T23:19:23;2.40;99.90
21184;DHT22;18176;49.502;11.754;2024-01-06T23:23:47;2.40;99.90
21184;DHT22;18176;49.502;11.754;2024-01-06T23:28:07;2.40;99.90
21184;DHT22;18176;49.502;11.754;2024-01-06T23:32:28;2.40;99.90
21184;DHT22;18176;49.502;11.754;2024-01-06T23:36:49;2.50;99.90
21184;DHT22;18176;49.502;11.754;2024-01-06T23:41:12;2.50;99.90
21184;DHT22;18176;49.502;11.754;2024-01-06T23:45:33;2.60;99.90
21184;DHT22;18176;49.502;11.754;2024-01-06T23:49:54;2.60;99.90
21184;DHT22;18176;49.502;11.754;2024-01-06T23:54:15;2.70;99.90
21184;DHT22;18176;49.502;11.754;2024-01-06T23:58:38;2.90;99.90
